LOT9PT EPWA-EDDF
Flight info
| Callsign | LOT9PT |
|---|---|
| Flight time | 1h 25m |
| Altitude | 36000 |
| Route | LOLSI DCT DIBLO DCT INDIG DCT KORUP DCT SULED DCT ROBEL/N0396F240 T178 KERAX KERAX5D |
| Aircraft | B738/M-SDE2E3FGHIRWXY/LB1 |
Departure
| Time | 2026-05-07 18:57 |
|---|---|
| Airport | Warsaw Chopin Airport (EPWA) |
Arrival
| Time | 2026-05-07 20:22 |
|---|---|
| Airport | Frankfurt Main Airport (EDDF) |
| Time | Latitude | Longitude | Altitude | Speed | Heading |
|---|---|---|---|---|---|
| 2026-05-07 18:33 | 52.17407 | 20.97018 | 341 ft | 0 kts | 241° |
| 2026-05-07 18:46 | 52.17411 | 20.97030 | 341 ft | 2 kts | 241° |
| 2026-05-07 18:46 | 52.17419 | 20.97052 | 342 ft | 2 kts | 241° |
| 2026-05-07 18:46 | 52.17426 | 20.97073 | 342 ft | 2 kts | 241° |
| 2026-05-07 18:46 | 52.17431 | 20.97096 | 342 ft | 2 kts | 271° |
| 2026-05-07 18:47 | 52.17428 | 20.97120 | 343 ft | 2 kts | 298° |
| 2026-05-07 18:47 | 52.17419 | 20.97137 | 343 ft | 1 kts | 326° |
| 2026-05-07 18:47 | 52.17414 | 20.97142 | 343 ft | 1 kts | 334° |
| 2026-05-07 18:47 | 52.17411 | 20.97144 | 343 ft | 0 kts | 332° |
| 2026-05-07 18:49 | 52.17417 | 20.97139 | 343 ft | 3 kts | 332° |
| 2026-05-07 18:50 | 52.17454 | 20.97106 | 343 ft | 8 kts | 331° |
| 2026-05-07 18:50 | 52.17521 | 20.97045 | 342 ft | 13 kts | 331° |
| 2026-05-07 18:50 | 52.17600 | 20.96975 | 342 ft | 11 kts | 328° |
| 2026-05-07 18:50 | 52.17608 | 20.96845 | 341 ft | 15 kts | 239° |
| 2026-05-07 18:51 | 52.17549 | 20.96690 | 338 ft | 16 kts | 238° |
| 2026-05-07 18:51 | 52.17480 | 20.96537 | 334 ft | 17 kts | 235° |
| 2026-05-07 18:51 | 52.17428 | 20.96409 | 334 ft | 11 kts | 217° |
| 2026-05-07 18:51 | 52.17361 | 20.96425 | 335 ft | 9 kts | 151° |
| 2026-05-07 18:52 | 52.17296 | 20.96483 | 334 ft | 12 kts | 152° |
| 2026-05-07 18:52 | 52.17211 | 20.96556 | 334 ft | 14 kts | 152° |
| 2026-05-07 18:52 | 52.17112 | 20.96642 | 333 ft | 18 kts | 152° |
| 2026-05-07 18:52 | 52.16983 | 20.96754 | 331 ft | 23 kts | 152° |
| 2026-05-07 18:53 | 52.16824 | 20.96892 | 332 ft | 25 kts | 152° |
| 2026-05-07 18:53 | 52.16684 | 20.97017 | 334 ft | 15 kts | 144° |
| 2026-05-07 18:53 | 52.16636 | 20.97150 | 337 ft | 12 kts | 115° |
| 2026-05-07 18:53 | 52.16597 | 20.97291 | 337 ft | 15 kts | 114° |
| 2026-05-07 18:54 | 52.16548 | 20.97463 | 337 ft | 18 kts | 115° |
| 2026-05-07 18:54 | 52.16492 | 20.97659 | 337 ft | 19 kts | 114° |
| 2026-05-07 18:54 | 52.16455 | 20.97789 | 336 ft | 6 kts | 125° |
| 2026-05-07 18:54 | 52.16418 | 20.97808 | 336 ft | 6 kts | 198° |
| 2026-05-07 18:55 | 52.16376 | 20.97778 | 335 ft | 7 kts | 204° |
| 2026-05-07 18:55 | 52.16317 | 20.97725 | 334 ft | 9 kts | 223° |
| 2026-05-07 18:55 | 52.16317 | 20.97631 | 335 ft | 7 kts | 294° |
| 2026-05-07 18:55 | 52.16319 | 20.97624 | 335 ft | 0 kts | 294° |
| 2026-05-07 18:56 | 52.16319 | 20.97623 | 335 ft | 0 kts | 294° |
| 2026-05-07 18:56 | 52.16352 | 20.97503 | 337 ft | 39 kts | 294° |
| 2026-05-07 18:56 | 52.16565 | 20.96745 | 333 ft | 105 kts | 294° |
| 2026-05-07 18:57 | 52.16953 | 20.95368 | 355 ft | 157 kts | 295° |
| 2026-05-07 18:57 | 52.17412 | 20.93689 | 826 ft | 164 kts | 296° |
| 2026-05-07 18:57 | 52.17881 | 20.92040 | 1504 ft | 165 kts | 299° |
| 2026-05-07 18:57 | 52.18377 | 20.90282 | 2017 ft | 179 kts | 288° |
| 2026-05-07 18:58 | 52.18397 | 20.88185 | 2524 ft | 198 kts | 263° |
| 2026-05-07 18:58 | 52.18162 | 20.85892 | 3074 ft | 213 kts | 263° |
| 2026-05-07 18:58 | 52.18014 | 20.83442 | 3622 ft | 229 kts | 271° |
| 2026-05-07 18:58 | 52.18232 | 20.80805 | 4290 ft | 241 kts | 284° |
| 2026-05-07 18:59 | 52.18524 | 20.78068 | 4986 ft | 253 kts | 273° |
| 2026-05-07 18:59 | 52.18468 | 20.75177 | 5706 ft | 264 kts | 266° |
| 2026-05-07 18:59 | 52.18325 | 20.72206 | 6620 ft | 265 kts | 267° |
| 2026-05-07 18:59 | 52.18254 | 20.69239 | 7560 ft | 266 kts | 269° |
| 2026-05-07 19:00 | 52.18238 | 20.66264 | 8417 ft | 269 kts | 270° |
| 2026-05-07 19:00 | 52.18237 | 20.63218 | 9229 ft | 274 kts | 270° |
| 2026-05-07 19:00 | 52.18236 | 20.60135 | 10065 ft | 276 kts | 269° |
| 2026-05-07 19:00 | 52.18232 | 20.56961 | 10707 ft | 286 kts | 269° |
| 2026-05-07 19:01 | 52.18222 | 20.53647 | 11180 ft | 302 kts | 269° |
| 2026-05-07 19:01 | 52.18209 | 20.50191 | 11654 ft | 316 kts | 269° |
| 2026-05-07 19:01 | 52.18195 | 20.46514 | 12084 ft | 332 kts | 269° |
| 2026-05-07 19:01 | 52.18180 | 20.42729 | 12750 ft | 339 kts | 269° |
| 2026-05-07 19:02 | 52.18164 | 20.38887 | 13568 ft | 341 kts | 268° |
| 2026-05-07 19:02 | 52.18144 | 20.35021 | 14258 ft | 346 kts | 268° |
| 2026-05-07 19:02 | 52.18121 | 20.31091 | 14985 ft | 350 kts | 267° |
| 2026-05-07 19:02 | 52.18095 | 20.27161 | 15657 ft | 355 kts | 267° |
| 2026-05-07 19:03 | 52.18069 | 20.23123 | 16315 ft | 359 kts | 266° |
| 2026-05-07 19:03 | 52.18042 | 20.19037 | 16951 ft | 364 kts | 266° |
| 2026-05-07 19:03 | 52.18014 | 20.14957 | 17577 ft | 368 kts | 266° |
| 2026-05-07 19:03 | 52.17983 | 20.10756 | 18169 ft | 374 kts | 266° |
| 2026-05-07 19:04 | 52.17957 | 20.06526 | 18833 ft | 377 kts | 265° |
| 2026-05-07 19:04 | 52.17931 | 20.02252 | 19484 ft | 379 kts | 265° |
| 2026-05-07 19:04 | 52.17895 | 19.97994 | 20066 ft | 383 kts | 265° |
| 2026-05-07 19:04 | 52.17851 | 19.93636 | 20719 ft | 385 kts | 264° |
| 2026-05-07 19:05 | 52.17806 | 19.89324 | 21296 ft | 388 kts | 264° |
| 2026-05-07 19:05 | 52.17666 | 19.84948 | 21909 ft | 388 kts | 260° |
| 2026-05-07 19:05 | 52.17352 | 19.80550 | 22409 ft | 391 kts | 257° |
| 2026-05-07 19:05 | 52.16950 | 19.76193 | 23027 ft | 391 kts | 256° |
| 2026-05-07 19:06 | 52.16518 | 19.71877 | 23563 ft | 394 kts | 255° |
| 2026-05-07 19:06 | 52.15649 | 19.63036 | 24621 ft | 399 kts | 256° |
| 2026-05-07 19:06 | 52.15228 | 19.58561 | 25139 ft | 402 kts | 256° |
| 2026-05-07 19:07 | 52.14809 | 19.54059 | 25666 ft | 404 kts | 256° |
| 2026-05-07 19:07 | 52.14395 | 19.49553 | 26182 ft | 405 kts | 256° |
| 2026-05-07 19:07 | 52.13987 | 19.45052 | 26637 ft | 408 kts | 256° |
| 2026-05-07 19:07 | 52.13569 | 19.40492 | 27084 ft | 411 kts | 256° |
| 2026-05-07 19:08 | 52.13133 | 19.35860 | 27469 ft | 415 kts | 256° |
| 2026-05-07 19:08 | 52.12694 | 19.31211 | 27990 ft | 416 kts | 255° |
| 2026-05-07 19:08 | 52.12268 | 19.26598 | 28406 ft | 420 kts | 256° |
| 2026-05-07 19:08 | 52.12212 | 19.21792 | 28747 ft | 434 kts | 268° |
| 2026-05-07 19:09 | 52.12674 | 19.16873 | 29155 ft | 442 kts | 274° |
| 2026-05-07 19:09 | 52.13325 | 19.11973 | 29565 ft | 446 kts | 276° |
| 2026-05-07 19:09 | 52.14031 | 19.07070 | 29964 ft | 448 kts | 276° |
| 2026-05-07 19:09 | 52.14753 | 19.02134 | 30203 ft | 453 kts | 276° |
| 2026-05-07 19:10 | 52.15480 | 18.97171 | 30598 ft | 455 kts | 276° |
| 2026-05-07 19:10 | 52.16214 | 18.92203 | 30928 ft | 457 kts | 276° |
| 2026-05-07 19:10 | 52.16962 | 18.87144 | 31375 ft | 456 kts | 276° |
| 2026-05-07 19:10 | 52.17704 | 18.82199 | 31932 ft | 452 kts | 277° |
| 2026-05-07 19:11 | 52.18444 | 18.77237 | 32441 ft | 449 kts | 277° |
| 2026-05-07 19:11 | 52.19167 | 18.72346 | 32996 ft | 444 kts | 277° |
| 2026-05-07 19:11 | 52.19874 | 18.67542 | 33487 ft | 441 kts | 277° |
| 2026-05-07 19:11 | 52.20588 | 18.62663 | 33903 ft | 439 kts | 277° |
| 2026-05-07 19:12 | 52.21286 | 18.57876 | 34259 ft | 437 kts | 277° |
| 2026-05-07 19:12 | 52.21975 | 18.53091 | 34567 ft | 436 kts | 277° |
| 2026-05-07 19:12 | 52.22663 | 18.48260 | 34727 ft | 439 kts | 277° |
| 2026-05-07 19:12 | 52.23339 | 18.43462 | 34961 ft | 438 kts | 277° |
| 2026-05-07 19:13 | 52.24008 | 18.38666 | 35219 ft | 437 kts | 277° |
| 2026-05-07 19:13 | 52.24672 | 18.33836 | 35427 ft | 438 kts | 276° |
| 2026-05-07 19:13 | 52.25324 | 18.29010 | 35666 ft | 437 kts | 276° |
| 2026-05-07 19:13 | 52.25965 | 18.24172 | 35889 ft | 436 kts | 276° |
| 2026-05-07 19:14 | 52.26591 | 18.19331 | 35993 ft | 438 kts | 276° |
| 2026-05-07 19:14 | 52.27200 | 18.14522 | 36015 ft | 438 kts | 275° |
| 2026-05-07 19:14 | 52.27421 | 18.09599 | 36016 ft | 426 kts | 259° |
| 2026-05-07 19:14 | 52.26822 | 18.04969 | 36023 ft | 417 kts | 248° |
| 2026-05-07 19:15 | 52.24638 | 17.96275 | 36014 ft | 417 kts | 243° |
| 2026-05-07 19:15 | 52.22451 | 17.87573 | 36015 ft | 418 kts | 245° |
| 2026-05-07 19:16 | 52.20524 | 17.78622 | 36017 ft | 420 kts | 248° |
| 2026-05-07 19:16 | 52.18751 | 17.69581 | 36022 ft | 422 kts | 249° |
| 2026-05-07 19:17 | 52.17016 | 17.60484 | 36001 ft | 423 kts | 249° |
| 2026-05-07 19:17 | 52.15253 | 17.51242 | 36000 ft | 431 kts | 249° |
| 2026-05-07 19:18 | 52.13467 | 17.41929 | 36001 ft | 439 kts | 249° |
| 2026-05-07 19:18 | 52.11634 | 17.32414 | 35995 ft | 445 kts | 249° |
| 2026-05-07 19:19 | 52.09788 | 17.22853 | 35999 ft | 445 kts | 249° |
| 2026-05-07 19:19 | 52.07938 | 17.13319 | 35995 ft | 443 kts | 249° |
| 2026-05-07 19:20 | 52.06069 | 17.03758 | 36009 ft | 446 kts | 249° |
| 2026-05-07 19:20 | 52.04192 | 16.94210 | 36002 ft | 445 kts | 249° |
| 2026-05-07 19:21 | 52.02321 | 16.84716 | 36003 ft | 447 kts | 249° |
| 2026-05-07 19:21 | 52.00414 | 16.75100 | 36003 ft | 447 kts | 249° |
| 2026-05-07 19:22 | 51.98507 | 16.65545 | 36007 ft | 447 kts | 250° |
| 2026-05-07 19:22 | 51.96594 | 16.55979 | 36015 ft | 448 kts | 249° |
| 2026-05-07 19:23 | 51.94681 | 16.46458 | 36009 ft | 448 kts | 249° |
| 2026-05-07 19:23 | 51.92745 | 16.36884 | 36011 ft | 449 kts | 250° |
| 2026-05-07 19:24 | 51.90792 | 16.27281 | 36014 ft | 449 kts | 249° |
| 2026-05-07 19:24 | 51.88840 | 16.17737 | 36013 ft | 450 kts | 249° |
| 2026-05-07 19:25 | 51.86877 | 16.08168 | 36023 ft | 450 kts | 249° |
| 2026-05-07 19:25 | 51.84911 | 15.98611 | 36022 ft | 449 kts | 249° |
| 2026-05-07 19:26 | 51.82932 | 15.89062 | 36026 ft | 451 kts | 249° |
| 2026-05-07 19:26 | 51.80930 | 15.79453 | 36028 ft | 451 kts | 249° |
| 2026-05-07 19:27 | 51.78943 | 15.69947 | 36029 ft | 451 kts | 250° |
| 2026-05-07 19:27 | 51.76940 | 15.60414 | 36026 ft | 451 kts | 250° |
| 2026-05-07 19:28 | 51.74917 | 15.50843 | 36020 ft | 452 kts | 250° |
| 2026-05-07 19:28 | 51.72891 | 15.41298 | 36021 ft | 452 kts | 250° |
| 2026-05-07 19:29 | 51.70849 | 15.31718 | 36021 ft | 452 kts | 249° |
| 2026-05-07 19:29 | 51.68811 | 15.22198 | 36021 ft | 451 kts | 249° |
| 2026-05-07 19:30 | 51.66764 | 15.12678 | 36026 ft | 453 kts | 249° |
| 2026-05-07 19:30 | 51.64703 | 15.03150 | 36029 ft | 452 kts | 249° |
| 2026-05-07 19:31 | 51.62627 | 14.93603 | 36021 ft | 453 kts | 249° |
| 2026-05-07 19:31 | 51.60558 | 14.84117 | 36025 ft | 454 kts | 250° |
| 2026-05-07 19:32 | 51.58484 | 14.74588 | 36031 ft | 453 kts | 251° |
| 2026-05-07 19:32 | 51.56736 | 14.64872 | 36029 ft | 455 kts | 255° |
| 2026-05-07 19:33 | 51.55234 | 14.55071 | 36029 ft | 454 kts | 256° |
| 2026-05-07 19:33 | 51.53752 | 14.45244 | 36034 ft | 454 kts | 256° |
| 2026-05-07 19:34 | 51.52238 | 14.35484 | 36033 ft | 454 kts | 255° |
| 2026-05-07 19:34 | 51.50683 | 14.25685 | 36039 ft | 454 kts | 255° |
| 2026-05-07 19:35 | 51.49117 | 14.15914 | 36039 ft | 454 kts | 255° |
| 2026-05-07 19:35 | 51.47533 | 14.06120 | 36040 ft | 454 kts | 255° |
| 2026-05-07 19:36 | 51.45940 | 13.96332 | 36049 ft | 455 kts | 255° |
| 2026-05-07 19:36 | 51.44344 | 13.86579 | 36042 ft | 455 kts | 255° |
| 2026-05-07 19:37 | 51.42735 | 13.76801 | 36054 ft | 454 kts | 255° |
| 2026-05-07 19:37 | 51.41126 | 13.67093 | 36044 ft | 455 kts | 255° |
| 2026-05-07 19:38 | 51.39504 | 13.57363 | 36049 ft | 454 kts | 255° |
| 2026-05-07 19:38 | 51.37880 | 13.47670 | 36054 ft | 453 kts | 255° |
| 2026-05-07 19:39 | 51.36242 | 13.37943 | 36053 ft | 454 kts | 255° |
| 2026-05-07 19:39 | 51.34601 | 13.28252 | 36056 ft | 454 kts | 254° |
| 2026-05-07 19:40 | 51.32944 | 13.18529 | 36059 ft | 455 kts | 254° |
| 2026-05-07 19:40 | 51.31286 | 13.08845 | 36064 ft | 455 kts | 254° |
| 2026-05-07 19:41 | 51.29616 | 12.99153 | 36060 ft | 454 kts | 254° |
| 2026-05-07 19:41 | 51.27934 | 12.89440 | 36070 ft | 453 kts | 255° |
| 2026-05-07 19:42 | 51.26251 | 12.79778 | 36066 ft | 453 kts | 255° |
| 2026-05-07 19:42 | 51.24562 | 12.70134 | 36060 ft | 454 kts | 255° |
| 2026-05-07 19:43 | 51.22861 | 12.60475 | 36066 ft | 453 kts | 255° |
| 2026-05-07 19:43 | 51.21158 | 12.50858 | 36068 ft | 454 kts | 254° |
| 2026-05-07 19:44 | 51.19436 | 12.41181 | 35821 ft | 458 kts | 255° |
| 2026-05-07 19:44 | 51.18562 | 12.36290 | 35358 ft | 458 kts | 255° |
| 2026-05-07 19:44 | 51.17698 | 12.31466 | 34911 ft | 457 kts | 254° |
| 2026-05-07 19:45 | 51.16822 | 12.26591 | 34473 ft | 457 kts | 254° |
| 2026-05-07 19:45 | 51.15966 | 12.21803 | 34070 ft | 456 kts | 255° |
| 2026-05-07 19:45 | 51.15183 | 12.16953 | 33674 ft | 453 kts | 257° |
| 2026-05-07 19:45 | 51.14488 | 12.12115 | 33287 ft | 451 kts | 258° |
| 2026-05-07 19:46 | 51.13834 | 12.07283 | 32886 ft | 447 kts | 258° |
| 2026-05-07 19:46 | 51.13192 | 12.02477 | 32472 ft | 444 kts | 258° |
| 2026-05-07 19:46 | 51.12552 | 11.97696 | 31996 ft | 441 kts | 258° |
| 2026-05-07 19:46 | 51.11910 | 11.92975 | 31500 ft | 438 kts | 258° |
| 2026-05-07 19:47 | 51.11257 | 11.88236 | 30950 ft | 435 kts | 258° |
| 2026-05-07 19:47 | 51.10607 | 11.83576 | 30329 ft | 431 kts | 258° |
| 2026-05-07 19:47 | 51.09958 | 11.78968 | 29711 ft | 428 kts | 258° |
| 2026-05-07 19:47 | 51.09308 | 11.74393 | 29093 ft | 425 kts | 258° |
| 2026-05-07 19:48 | 51.08662 | 11.69861 | 28479 ft | 422 kts | 258° |
| 2026-05-07 19:48 | 51.08013 | 11.65336 | 27861 ft | 419 kts | 258° |
| 2026-05-07 19:48 | 51.07368 | 11.60862 | 27247 ft | 416 kts | 258° |
| 2026-05-07 19:48 | 51.06724 | 11.56416 | 26633 ft | 412 kts | 258° |
| 2026-05-07 19:49 | 51.06089 | 11.52044 | 26026 ft | 409 kts | 258° |
| 2026-05-07 19:49 | 51.05453 | 11.47676 | 25421 ft | 406 kts | 258° |
| 2026-05-07 19:49 | 51.04819 | 11.43341 | 25053 ft | 397 kts | 258° |
| 2026-05-07 19:49 | 51.04195 | 11.39086 | 24781 ft | 395 kts | 258° |
| 2026-05-07 19:50 | 51.03570 | 11.34824 | 24516 ft | 409 kts | 257° |
| 2026-05-07 19:50 | 51.02911 | 11.30334 | 24243 ft | 419 kts | 257° |
| 2026-05-07 19:50 | 51.02253 | 11.25866 | 23966 ft | 418 kts | 257° |
| 2026-05-07 19:50 | 51.01596 | 11.21436 | 23696 ft | 414 kts | 257° |
| 2026-05-07 19:51 | 51.00939 | 11.17022 | 23430 ft | 411 kts | 257° |
| 2026-05-07 19:51 | 51.00283 | 11.12629 | 23166 ft | 411 kts | 257° |
| 2026-05-07 19:51 | 50.99622 | 11.08209 | 22896 ft | 410 kts | 257° |
| 2026-05-07 19:51 | 50.98963 | 11.03809 | 22635 ft | 409 kts | 257° |
| 2026-05-07 19:52 | 50.98312 | 10.99474 | 22376 ft | 406 kts | 257° |
| 2026-05-07 19:52 | 50.97663 | 10.95170 | 22143 ft | 403 kts | 257° |
| 2026-05-07 19:52 | 50.97010 | 10.90851 | 22087 ft | 399 kts | 257° |
| 2026-05-07 19:52 | 50.96368 | 10.86614 | 22080 ft | 401 kts | 257° |
| 2026-05-07 19:53 | 50.95713 | 10.82301 | 22075 ft | 403 kts | 257° |
| 2026-05-07 19:53 | 50.95054 | 10.77973 | 22068 ft | 404 kts | 257° |
| 2026-05-07 19:53 | 50.94400 | 10.73690 | 22068 ft | 403 kts | 257° |
| 2026-05-07 19:53 | 50.93737 | 10.69361 | 22066 ft | 403 kts | 257° |
| 2026-05-07 19:54 | 50.93081 | 10.65085 | 22064 ft | 403 kts | 257° |
| 2026-05-07 19:54 | 50.92417 | 10.60771 | 22064 ft | 403 kts | 257° |
| 2026-05-07 19:54 | 50.91671 | 10.56482 | 22063 ft | 403 kts | 253° |
| 2026-05-07 19:54 | 50.90651 | 10.52386 | 22063 ft | 404 kts | 244° |
| 2026-05-07 19:55 | 50.89182 | 10.48600 | 22062 ft | 405 kts | 234° |
| 2026-05-07 19:55 | 50.87361 | 10.45233 | 22063 ft | 406 kts | 227° |
| 2026-05-07 19:55 | 50.85297 | 10.42190 | 22061 ft | 406 kts | 221° |
| 2026-05-07 19:55 | 50.83015 | 10.39557 | 22059 ft | 408 kts | 213° |
| 2026-05-07 19:56 | 50.80518 | 10.37476 | 22060 ft | 409 kts | 206° |
| 2026-05-07 19:56 | 50.77912 | 10.35683 | 22058 ft | 409 kts | 204° |
| 2026-05-07 19:56 | 50.75275 | 10.34028 | 22056 ft | 409 kts | 202° |
| 2026-05-07 19:56 | 50.72621 | 10.32421 | 22055 ft | 409 kts | 201° |
| 2026-05-07 19:57 | 50.70005 | 10.30786 | 22054 ft | 409 kts | 205° |
| 2026-05-07 19:57 | 50.67508 | 10.28615 | 22054 ft | 407 kts | 216° |
| 2026-05-07 19:57 | 50.65400 | 10.25738 | 22057 ft | 406 kts | 227° |
| 2026-05-07 19:57 | 50.63623 | 10.22325 | 22058 ft | 404 kts | 236° |
| 2026-05-07 19:58 | 50.62091 | 10.18584 | 22058 ft | 404 kts | 240° |
| 2026-05-07 19:58 | 50.60700 | 10.14796 | 22057 ft | 403 kts | 242° |
| 2026-05-07 19:58 | 50.59343 | 10.10913 | 22054 ft | 403 kts | 242° |
| 2026-05-07 19:58 | 50.58032 | 10.07093 | 22055 ft | 402 kts | 243° |
| 2026-05-07 19:59 | 50.56707 | 10.03226 | 22053 ft | 403 kts | 243° |
| 2026-05-07 19:59 | 50.55383 | 9.99320 | 22052 ft | 403 kts | 244° |
| 2026-05-07 19:59 | 50.54239 | 9.95314 | 22054 ft | 403 kts | 249° |
| 2026-05-07 19:59 | 50.53297 | 9.91181 | 22053 ft | 403 kts | 253° |
| 2026-05-07 20:00 | 50.52477 | 9.86997 | 22055 ft | 402 kts | 255° |
| 2026-05-07 20:00 | 50.51714 | 9.82798 | 22057 ft | 402 kts | 255° |
| 2026-05-07 20:00 | 50.50973 | 9.78593 | 22059 ft | 402 kts | 255° |
| 2026-05-07 20:00 | 50.50177 | 9.74366 | 22059 ft | 402 kts | 252° |
| 2026-05-07 20:01 | 50.49162 | 9.70312 | 22062 ft | 402 kts | 248° |
| 2026-05-07 20:01 | 50.48001 | 9.66355 | 22062 ft | 402 kts | 245° |
| 2026-05-07 20:01 | 50.46784 | 9.62432 | 22060 ft | 401 kts | 245° |
| 2026-05-07 20:01 | 50.45557 | 9.58509 | 22060 ft | 401 kts | 245° |
| 2026-05-07 20:02 | 50.44338 | 9.54561 | 22061 ft | 401 kts | 246° |
| 2026-05-07 20:02 | 50.43159 | 9.50675 | 22060 ft | 400 kts | 246° |
| 2026-05-07 20:02 | 50.41968 | 9.46694 | 22059 ft | 401 kts | 246° |
| 2026-05-07 20:02 | 50.40803 | 9.42769 | 22058 ft | 400 kts | 246° |
| 2026-05-07 20:03 | 50.39642 | 9.38842 | 22054 ft | 400 kts | 246° |
| 2026-05-07 20:03 | 50.38462 | 9.34855 | 22056 ft | 401 kts | 246° |
| 2026-05-07 20:03 | 50.37296 | 9.30911 | 22055 ft | 401 kts | 246° |
| 2026-05-07 20:03 | 50.36122 | 9.26947 | 22053 ft | 401 kts | 246° |
| 2026-05-07 20:04 | 50.34955 | 9.23003 | 22053 ft | 401 kts | 246° |
| 2026-05-07 20:04 | 50.33788 | 9.19067 | 22058 ft | 400 kts | 246° |
| 2026-05-07 20:04 | 50.32625 | 9.15149 | 22057 ft | 400 kts | 246° |
| 2026-05-07 20:04 | 50.31450 | 9.11196 | 22062 ft | 400 kts | 246° |
| 2026-05-07 20:05 | 50.30282 | 9.07272 | 22062 ft | 400 kts | 246° |
| 2026-05-07 20:05 | 50.29117 | 9.03364 | 22065 ft | 400 kts | 246° |
| 2026-05-07 20:05 | 50.27939 | 8.99418 | 22067 ft | 399 kts | 246° |
| 2026-05-07 20:05 | 50.26779 | 8.95534 | 22065 ft | 399 kts | 246° |
| 2026-05-07 20:06 | 50.25602 | 8.91603 | 22066 ft | 400 kts | 246° |
| 2026-05-07 20:06 | 50.24426 | 8.87684 | 22068 ft | 399 kts | 246° |
| 2026-05-07 20:06 | 50.23243 | 8.83747 | 21956 ft | 401 kts | 246° |
| 2026-05-07 20:06 | 50.22068 | 8.79844 | 21570 ft | 399 kts | 246° |
| 2026-05-07 20:07 | 50.20892 | 8.75944 | 21169 ft | 390 kts | 246° |
| 2026-05-07 20:07 | 50.19750 | 8.72163 | 20771 ft | 382 kts | 246° |
| 2026-05-07 20:07 | 50.18631 | 8.68468 | 20381 ft | 375 kts | 246° |
| 2026-05-07 20:07 | 50.17545 | 8.64882 | 19986 ft | 368 kts | 246° |
| 2026-05-07 20:08 | 50.16452 | 8.61275 | 19417 ft | 366 kts | 246° |
| 2026-05-07 20:08 | 50.15371 | 8.57711 | 18800 ft | 362 kts | 246° |
| 2026-05-07 20:08 | 50.14319 | 8.54250 | 18084 ft | 356 kts | 245° |
| 2026-05-07 20:08 | 50.13266 | 8.50785 | 17308 ft | 352 kts | 246° |
| 2026-05-07 20:09 | 50.12229 | 8.47372 | 16545 ft | 348 kts | 246° |
| 2026-05-07 20:09 | 50.11209 | 8.43996 | 15780 ft | 344 kts | 246° |
| 2026-05-07 20:09 | 50.10297 | 8.40640 | 15032 ft | 340 kts | 249° |
| 2026-05-07 20:10 | 50.08703 | 8.33824 | 13520 ft | 334 kts | 250° |
| 2026-05-07 20:10 | 50.07917 | 8.30416 | 12758 ft | 331 kts | 250° |
| 2026-05-07 20:10 | 50.07143 | 8.27111 | 12012 ft | 328 kts | 250° |
| 2026-05-07 20:10 | 50.06361 | 8.23829 | 11263 ft | 325 kts | 250° |
| 2026-05-07 20:11 | 50.05568 | 8.20542 | 10525 ft | 322 kts | 250° |
| 2026-05-07 20:11 | 50.04786 | 8.17334 | 9778 ft | 320 kts | 249° |
| 2026-05-07 20:11 | 50.03996 | 8.14122 | 9040 ft | 318 kts | 249° |
| 2026-05-07 20:11 | 50.03214 | 8.10947 | 8294 ft | 316 kts | 250° |
| 2026-05-07 20:12 | 50.02439 | 8.07801 | 7551 ft | 314 kts | 250° |
| 2026-05-07 20:12 | 50.01666 | 8.04655 | 6796 ft | 313 kts | 250° |
| 2026-05-07 20:12 | 50.00885 | 8.01507 | 6125 ft | 309 kts | 247° |
| 2026-05-07 20:12 | 49.99728 | 7.98790 | 5745 ft | 296 kts | 223° |
| 2026-05-07 20:13 | 49.98053 | 7.97185 | 5488 ft | 282 kts | 197° |
| 2026-05-07 20:13 | 49.96161 | 7.96913 | 5235 ft | 267 kts | 172° |
| 2026-05-07 20:13 | 49.94394 | 7.97496 | 4982 ft | 255 kts | 164° |
| 2026-05-07 20:13 | 49.92732 | 7.98207 | 4828 ft | 243 kts | 163° |
| 2026-05-07 20:14 | 49.91119 | 7.98921 | 4734 ft | 240 kts | 161° |
| 2026-05-07 20:14 | 49.89681 | 8.00193 | 4582 ft | 239 kts | 133° |
| 2026-05-07 20:14 | 49.88871 | 8.02361 | 4461 ft | 235 kts | 101° |
| 2026-05-07 20:14 | 49.88918 | 8.04821 | 4302 ft | 225 kts | 68° |
| 2026-05-07 20:15 | 49.89769 | 8.06738 | 4167 ft | 213 kts | 40° |
| 2026-05-07 20:15 | 49.90890 | 8.08167 | 4006 ft | 204 kts | 42° |
| 2026-05-07 20:15 | 49.91787 | 8.09751 | 3975 ft | 191 kts | 55° |
| 2026-05-07 20:15 | 49.92426 | 8.11487 | 3998 ft | 182 kts | 62° |
| 2026-05-07 20:16 | 49.92959 | 8.13301 | 3984 ft | 186 kts | 65° |
| 2026-05-07 20:16 | 49.93447 | 8.15151 | 3983 ft | 187 kts | 66° |
| 2026-05-07 20:16 | 49.93915 | 8.17014 | 3982 ft | 180 kts | 67° |
| 2026-05-07 20:16 | 49.94347 | 8.18772 | 3984 ft | 175 kts | 67° |
| 2026-05-07 20:17 | 49.94786 | 8.20562 | 3986 ft | 176 kts | 67° |
| 2026-05-07 20:17 | 49.95217 | 8.22324 | 3984 ft | 176 kts | 67° |
| 2026-05-07 20:17 | 49.95652 | 8.24113 | 3977 ft | 177 kts | 67° |
| 2026-05-07 20:17 | 49.96089 | 8.25906 | 3987 ft | 177 kts | 68° |
| 2026-05-07 20:18 | 49.96521 | 8.27685 | 3916 ft | 179 kts | 68° |
| 2026-05-07 20:18 | 49.96966 | 8.29514 | 3632 ft | 181 kts | 68° |
| 2026-05-07 20:18 | 49.97403 | 8.31314 | 3374 ft | 177 kts | 68° |
| 2026-05-07 20:18 | 49.97827 | 8.33062 | 3130 ft | 173 kts | 68° |
| 2026-05-07 20:19 | 49.98252 | 8.34813 | 2891 ft | 172 kts | 68° |
| 2026-05-07 20:19 | 49.98670 | 8.36538 | 2649 ft | 169 kts | 68° |
| 2026-05-07 20:19 | 49.99083 | 8.38246 | 2420 ft | 170 kts | 68° |
| 2026-05-07 20:19 | 49.99497 | 8.39954 | 2182 ft | 170 kts | 68° |
| 2026-05-07 20:20 | 49.99911 | 8.41671 | 1943 ft | 166 kts | 68° |
| 2026-05-07 20:20 | 50.00303 | 8.43293 | 1757 ft | 150 kts | 68° |
| 2026-05-07 20:20 | 50.00660 | 8.44776 | 1506 ft | 144 kts | 69° |
| 2026-05-07 20:20 | 50.01021 | 8.46185 | 1315 ft | 140 kts | 66° |
| 2026-05-07 20:21 | 50.01371 | 8.47602 | 1146 ft | 141 kts | 69° |
| 2026-05-07 20:21 | 50.01704 | 8.49032 | 986 ft | 142 kts | 68° |
| 2026-05-07 20:21 | 50.02050 | 8.50464 | 809 ft | 141 kts | 68° |
| 2026-05-07 20:21 | 50.02395 | 8.51912 | 604 ft | 142 kts | 69° |
| 2026-05-07 20:22 | 50.02735 | 8.53337 | 387 ft | 142 kts | 68° |
| 2026-05-07 20:22 | 50.03060 | 8.54688 | 330 ft | 114 kts | 70° |
| 2026-05-07 20:22 | 50.03258 | 8.55526 | 333 ft | 51 kts | 69° |
| 2026-05-07 20:22 | 50.03355 | 8.55929 | 337 ft | 34 kts | 69° |
| 2026-05-07 20:23 | 50.03440 | 8.56208 | 339 ft | 26 kts | 55° |
| 2026-05-07 20:23 | 50.03553 | 8.56392 | 340 ft | 22 kts | 39° |
| 2026-05-07 20:23 | 50.03667 | 8.56540 | 343 ft | 19 kts | 39° |
| 2026-05-07 20:23 | 50.03766 | 8.56673 | 345 ft | 17 kts | 48° |
| 2026-05-07 20:24 | 50.03817 | 8.56832 | 346 ft | 15 kts | 69° |
| 2026-05-07 20:24 | 50.03851 | 8.56974 | 350 ft | 11 kts | 69° |
| 2026-05-07 20:24 | 50.03879 | 8.57092 | 351 ft | 12 kts | 70° |
| 2026-05-07 20:24 | 50.03909 | 8.57215 | 353 ft | 12 kts | 69° |
| 2026-05-07 20:25 | 50.03943 | 8.57362 | 355 ft | 16 kts | 69° |
| 2026-05-07 20:25 | 50.03987 | 8.57544 | 357 ft | 19 kts | 69° |
| 2026-05-07 20:25 | 50.04037 | 8.57752 | 361 ft | 21 kts | 69° |
| 2026-05-07 20:25 | 50.04092 | 8.57980 | 364 ft | 21 kts | 69° |
| 2026-05-07 20:26 | 50.04153 | 8.58142 | 366 ft | 16 kts | 30° |
| 2026-05-07 20:26 | 50.04244 | 8.58207 | 368 ft | 11 kts | 12° |
| 2026-05-07 20:26 | 50.04282 | 8.58204 | 368 ft | 0 kts | 345° |
| 2026-05-07 20:26 | 50.04284 | 8.58203 | 369 ft | 0 kts | 343° |
| 2026-05-07 20:27 | 50.04298 | 8.58196 | 369 ft | 3 kts | 340° |
| 2026-05-07 20:27 | 50.04328 | 8.58179 | 369 ft | 6 kts | 339° |
| 2026-05-07 20:27 | 50.04376 | 8.58152 | 370 ft | 8 kts | 339° |
| 2026-05-07 20:27 | 50.04443 | 8.58113 | 372 ft | 11 kts | 339° |
| 2026-05-07 20:28 | 50.04528 | 8.58064 | 373 ft | 14 kts | 339° |
| 2026-05-07 20:28 | 50.04640 | 8.57999 | 373 ft | 19 kts | 339° |
| 2026-05-07 20:28 | 50.04763 | 8.57928 | 373 ft | 17 kts | 339° |
| 2026-05-07 20:28 | 50.04851 | 8.57826 | 373 ft | 16 kts | 293° |
| 2026-05-07 20:29 | 50.04892 | 8.57674 | 374 ft | 14 kts | 292° |
| 2026-05-07 20:29 | 50.04912 | 8.57607 | 374 ft | 2 kts | 294° |
| 2026-05-07 20:29 | 50.04922 | 8.57581 | 374 ft | 2 kts | 312° |
| 2026-05-07 20:29 | 50.04940 | 8.57571 | 375 ft | 3 kts | 3° |
| 2026-05-07 20:30 | 50.04962 | 8.57581 | 375 ft | 3 kts | 21° |
| 2026-05-07 20:30 | 50.04983 | 8.57594 | 376 ft | 2 kts | 21° |
| 2026-05-07 20:30 | 50.04995 | 8.57601 | 376 ft | 0 kts | 20° |